Ripley, Oklahoma
Current Conditions -  °F | °C
As of 5:15 PM on Sunday 21 Dec 2014 (Local Time) from KCUH Reporting Station
Drizzle Drizzle  
Wind Chill: 41°   Ceiling: 1300
Heat Index: 45°   Visibility: 2.5mi
Dew Point: 45°   Wind: 6mph
Humidity: 100%   Direction: 150°SSE
Pressure: 29.8"   Gusts: NA
Location:  36.02°N, 96.91°W
Report Text: KCUH 212315Z AUTO 15005KT 2 1/2SM -DZ OVC013 07/07 A2980 RMK AO2
Loading
Personal Weather Stations






























Interactive Weather Map New forecast layout! Learn more

10-Day Weather Forecast

Advertisements
Track Severe Weather on mobile